Time;durP1;ratioP1;P1;durP2;ratioP2;P2;SDS_P1;SDS_P2;PMS_P1;PMS_P2;Temp;Humidity;BMP_temperature;BMP_pressure;BME280_temperature;BME280_humidity;BME280_pressure;Samples;Min_cycle;Max_cycle;Signal;HPM_P1;HPM_P2
2021/11/02 00:02:01;;;;;;;26.27;19.08;;;;;;;9.60;100.00;96195.53;4954819;29;20015;-77
2021/11/02 00:04:26;;;;;;;25.83;18.40;;;;;;;9.64;100.00;96204.66;4937482;29;20035;-77
2021/11/02 00:06:52;;;;;;;24.77;17.40;;;;;;;9.65;100.00;96195.31;4954906;29;20395;-77
2021/11/02 00:09:21;;;;;;;24.73;19.08;;;;;;;9.71;100.00;96219.72;4954692;29;20032;-77
2021/11/02 00:11:47;;;;;;;27.98;18.60;;;;;;;9.64;100.00;96253.00;4937179;29;20031;-77
2021/11/02 00:14:14;;;;;;;25.50;17.55;;;;;;;9.66;100.00;96273.38;4954750;29;20110;-76
2021/11/02 00:16:40;;;;;;;26.98;18.83;;;;;;;9.64;100.00;96278.38;4954559;29;20448;-76
2021/11/02 00:19:07;;;;;;;28.52;20.33;;;;;;;9.62;100.00;96272.41;4954838;29;20176;-76
2021/11/02 00:21:35;;;;;;;26.00;19.00;;;;;;;9.67;100.00;96274.97;4954636;29;20027;-77
2021/11/02 00:24:13;;;;;;;27.00;18.08;;;;;;;9.69;100.00;96267.25;4954738;29;20031;-76
2021/11/02 00:26:39;;;;;;;23.73;17.60;;;;;;;9.76;100.00;96255.00;4937905;29;20089;-76
2021/11/02 00:29:05;;;;;;;27.33;18.35;;;;;;;9.67;100.00;96253.13;4954397;29;20027;-76
2021/11/02 00:31:31;;;;;;;23.27;16.90;;;;;;;9.70;100.00;96254.41;4954306;29;20031;-76
2021/11/02 00:33:56;;;;;;;25.50;17.30;;;;;;;9.64;100.00;96248.34;4952067;28;20393;-76
2021/11/02 00:36:22;;;;;;;21.45;16.40;;;;;;;9.62;100.00;96263.44;4954381;29;20027;-76
2021/11/02 00:38:47;;;;;;;26.63;18.40;;;;;;;9.64;100.00;96253.00;4954976;29;20041;-77
2021/11/02 00:41:13;;;;;;;22.27;16.58;;;;;;;9.68;100.00;96256.63;4958819;29;20079;-76
2021/11/02 00:43:38;;;;;;;24.80;17.40;;;;;;;9.68;100.00;96260.19;4961198;29;20397;-78
2021/11/02 00:46:05;;;;;;;23.27;16.50;;;;;;;9.71;100.00;96268.84;4961214;29;20039;-76
2021/11/02 00:48:30;;;;;;;23.60;15.80;;;;;;;9.72;100.00;96275.88;4978887;28;20043;-75
2021/11/02 00:50:55;;;;;;;21.25;15.93;;;;;;;9.67;100.00;96263.25;4975688;28;20035;-76
2021/11/02 00:53:22;;;;;;;24.83;15.93;;;;;;;9.66;100.00;96262.44;4962622;29;20082;-78
2021/11/02 00:55:48;;;;;;;21.33;15.70;;;;;;;9.68;100.00;96251.19;4957178;29;20079;-77
2021/11/02 00:58:14;;;;;;;23.52;16.23;;;;;;;9.69;100.00;96256.31;4958034;29;20145;-78
2021/11/02 01:00:41;;;;;;;22.45;16.23;;;;;;;9.61;100.00;96248.19;4937356;29;20382;-78
2021/11/02 01:03:08;;;;;;;23.35;16.30;;;;;;;9.58;100.00;96255.13;4954063;29;20078;-78
2021/11/02 01:05:34;;;;;;;22.05;16.17;;;;;;;9.62;100.00;96256.03;4936512;29;20042;-78
2021/11/02 01:08:00;;;;;;;22.70;15.18;;;;;;;9.66;100.00;96261.63;4953773;29;20032;-76
2021/11/02 01:10:26;;;;;;;22.05;16.48;;;;;;;9.60;100.00;96258.31;4953810;29;20031;-78
2021/11/02 01:12:52;;;;;;;25.55;17.63;;;;;;;9.64;100.00;96261.19;4936933;29;20472;-78
2021/11/02 01:15:21;;;;;;;25.00;17.52;;;;;;;9.63;100.00;96262.31;4954167;29;20499;-78
2021/11/02 01:17:47;;;;;;;27.42;18.10;;;;;;;9.60;100.00;96258.31;4954230;29;20063;-77
2021/11/02 01:20:14;;;;;;;23.83;16.75;;;;;;;9.54;100.00;96258.81;4935813;29;20141;-77
2021/11/02 01:22:41;;;;;;;22.23;16.70;;;;;;;9.54;100.00;96254.19;4953041;29;20369;-76
2021/11/02 01:25:07;;;;;;;21.67;15.20;;;;;;;9.46;100.00;96252.28;4953275;29;20439;-76
2021/11/02 01:27:34;;;;;;;20.77;14.85;;;;;;;9.46;100.00;96251.50;4953356;29;20027;-77
2021/11/02 01:30:00;;;;;;;19.10;13.95;;;;;;;9.49;100.00;96245.38;4953120;29;20047;-77
2021/11/02 01:32:25;;;;;;;19.17;13.48;;;;;;;9.44;100.00;96242.84;4953254;29;20034;-77
2021/11/02 01:34:50;;;;;;;19.23;13.85;;;;;;;9.42;100.00;96245.09;4936011;29;20059;-77
2021/11/02 01:37:16;;;;;;;19.73;14.07;;;;;;;9.37;100.00;96229.69;4953618;29;20096;-77
2021/11/02 01:39:41;;;;;;;17.45;13.07;;;;;;;9.42;100.00;96235.00;4953026;29;20038;-77
2021/11/02 01:42:07;;;;;;;16.98;12.73;;;;;;;9.49;100.00;96239.94;4953090;29;20110;-77
2021/11/02 01:44:33;;;;;;;18.85;13.52;;;;;;;9.52;100.00;96239.25;4953066;29;20031;-76
2021/11/02 01:46:59;;;;;;;15.10;11.38;;;;;;;9.51;100.00;96238.47;4952620;28;20075;-76
2021/11/02 01:49:24;;;;;;;16.23;12.52;;;;;;;9.47;100.00;96242.16;4953132;29;20035;-76
2021/11/02 01:51:50;;;;;;;17.77;12.93;;;;;;;9.47;100.00;96237.50;4935224;29;20027;-76
2021/11/02 01:54:17;;;;;;;19.48;14.40;;;;;;;9.47;100.00;96231.25;4935554;29;20031;-77
2021/11/02 01:56:47;;;;;;;19.13;14.05;;;;;;;9.45;100.00;96234.31;4935763;29;20019;-77
2021/11/02 01:59:13;;;;;;;17.63;13.00;;;;;;;9.50;100.00;96234.13;4952666;29;20122;-76
2021/11/02 02:01:54;;;;;;;18.23;12.98;;;;;;;9.52;100.00;96237.31;4919712;29;20167;-77
2021/11/02 02:04:34;;;;;;;15.20;11.88;;;;;;;9.55;100.00;96239.38;4935212;29;20031;-76
2021/11/02 02:07:16;;;;;;;18.00;12.30;;;;;;;9.52;100.00;96239.25;4951268;29;20464;-76
2021/11/02 02:09:58;;;;;;;16.40;11.95;;;;;;;9.51;100.00;96243.91;4932684;29;20035;-76
2021/11/02 02:13:01;;;;;;;13.52;11.07;;;;;;;9.61;100.00;96231.81;4942948;29;20023;-77
2021/11/02 02:15:42;;;;;;;13.15;9.45;;;;;;;9.49;100.00;96221.59;4932793;29;20501;-76
2021/11/02 02:18:16;;;;;;;8.95;6.65;;;;;;;9.42;100.00;96206.91;4933684;29;20031;-77
2021/11/02 02:21:04;;;;;;;9.05;6.40;;;;;;;9.34;100.00;96205.81;4916040;29;20103;-76
2021/11/02 02:23:46;;;;;;;8.23;5.72;;;;;;;9.28;100.00;96212.59;4933146;29;20023;-76
2021/11/02 02:26:33;;;;;;;6.57;3.58;;;;;;;9.27;100.00;96216.44;4915712;29;20319;-77
2021/11/02 02:29:03;;;;;;;5.35;3.40;;;;;;;9.24;100.00;96217.09;4941911;29;20031;-77
2021/11/02 02:31:31;;;;;;;3.20;2.20;;;;;;;9.24;100.00;96216.31;4951893;29;20532;-77
2021/11/02 02:33:58;;;;;;;3.50;2.08;;;;;;;9.19;100.00;96220.03;4952176;29;20552;-77
2021/11/02 02:36:24;;;;;;;4.00;2.50;;;;;;;9.14;100.00;96217.50;4934898;29;20396;-77
2021/11/02 02:38:53;;;;;;;4.15;2.67;;;;;;;9.16;100.00;96231.59;4951856;29;20111;-76
2021/11/02 02:41:21;;;;;;;4.07;2.67;;;;;;;9.15;100.00;96228.06;4952093;29;20519;-77
2021/11/02 02:43:47;;;;;;;3.72;2.60;;;;;;;9.12;100.00;96236.09;4952109;29;20038;-76
2021/11/02 02:46:13;;;;;;;4.13;2.90;;;;;;;9.11;100.00;96231.78;4952163;29;20031;-77
2021/11/02 02:48:41;;;;;;;4.43;2.50;;;;;;;8.93;100.00;96220.13;4953498;29;20067;-76
2021/11/02 02:51:09;;;;;;;5.05;2.40;;;;;;;8.97;100.00;96242.91;4952169;29;20034;-76
2021/11/02 02:53:35;;;;;;;3.55;2.17;;;;;;;8.91;100.00;96237.97;4952045;29;20788;-77
2021/11/02 02:56:03;;;;;;;3.95;2.30;;;;;;;8.93;100.00;96244.69;4951950;29;20028;-76
2021/11/02 02:58:38;;;;;;;5.18;2.42;;;;;;;8.90;100.00;96239.06;4954355;28;20019;-77
2021/11/02 03:01:09;;;;;;;3.85;2.47;;;;;;;8.91;100.00;96238.75;4938303;29;20398;-76
2021/11/02 03:03:58;;;;;;;3.95;2.00;;;;;;;8.93;100.00;96232.97;4955979;29;20058;-76
2021/11/02 03:06:26;;;;;;;3.10;1.80;;;;;;;8.84;100.00;96224.03;4928956;29;20043;-77
2021/11/02 03:08:53;;;;;;;6.00;1.70;;;;;;;8.74;100.00;96227.13;4939585;29;20035;-77
2021/11/02 03:11:20;;;;;;;2.95;1.70;;;;;;;8.83;100.00;96233.34;4938462;29;20031;-77
2021/11/02 03:13:49;;;;;;;2.88;1.30;;;;;;;8.76;100.00;96242.03;4936579;29;20400;-76
2021/11/02 03:16:17;;;;;;;2.42;1.42;;;;;;;8.72;100.00;96245.72;4937447;29;20028;-76
2021/11/02 03:20:06;;;;;;;2.35;1.33;;;;;;;8.69;100.00;96244.44;4938066;29;20031;-76
2021/11/02 03:49:39;;;;;;;2.53;1.50;;;;;;;8.81;100.00;96251.94;4936215;29;20059;-76
2021/11/02 06:30:07;;;;;;;13.88;9.38;;;;;;;8.94;100.00;96403.63;4952663;29;20054;-77
2021/11/02 06:32:35;;;;;;;12.20;8.55;;;;;;;9.02;100.00;96411.00;4953590;28;20058;-78
2021/11/02 06:35:23;;;;;;;12.73;9.80;;;;;;;9.09;100.00;96411.31;4961133;29;20046;-78
2021/11/02 07:18:37;;;;;;;10.68;7.10;;;;;;;9.63;100.00;96521.63;4936428;29;20028;-75
2021/11/02 07:23:53;;;;;;;10.35;6.72;;;;;;;9.64;100.00;96531.44;4936012;29;20027;-75
2021/11/02 08:47:06;;;;;;;5.20;2.05;;;;;;;10.59;100.00;96625.66;4927491;29;20030;-75
2021/11/02 08:49:34;;;;;;;3.30;1.98;;;;;;;10.49;100.00;96622.50;4943021;29;20028;-75
2021/11/02 08:52:02;;;;;;;3.72;1.85;;;;;;;10.38;100.00;96632.97;4941981;29;20032;-76
2021/11/02 08:54:28;;;;;;;4.38;2.00;;;;;;;10.30;100.00;96611.16;4943527;28;20031;-76
2021/11/02 08:56:55;;;;;;;3.83;2.05;;;;;;;10.50;100.00;96630.38;4941155;29;20022;-76
2021/11/02 08:59:21;;;;;;;4.65;2.08;;;;;;;10.73;100.00;96648.13;4942581;29;20062;-76
2021/11/02 09:01:52;;;;;;;4.43;2.00;;;;;;;10.65;100.00;96638.03;4943472;29;20027;-77
2021/11/02 09:04:19;;;;;;;3.92;1.85;;;;;;;10.75;100.00;96647.78;4940881;29;20515;-75
2021/11/02 09:06:50;;;;;;;3.13;1.85;;;;;;;10.50;100.00;96663.16;4938578;29;20122;-76
2021/11/02 09:09:18;;;;;;;2.80;1.90;;;;;;;10.30;100.00;96665.81;4936773;29;20159;-76
2021/11/02 09:11:45;;;;;;;4.00;2.20;;;;;;;10.36;100.00;96665.31;4942401;29;20034;-76
2021/11/02 09:14:16;;;;;;;3.00;1.80;;;;;;;10.46;100.00;96678.63;4943394;29;20074;-75
2021/11/02 09:16:46;;;;;;;5.40;2.00;;;;;;;10.38;100.00;96678.63;4942542;29;20035;-76
2021/11/02 09:19:13;;;;;;;4.30;2.22;;;;;;;10.51;100.00;96673.00;4941729;29;20028;-75
2021/11/02 09:21:38;;;;;;;4.43;2.47;;;;;;;10.48;100.00;96670.91;4937556;28;20032;-75
2021/11/02 09:24:05;;;;;;;4.72;1.77;;;;;;;10.30;100.00;96669.34;4941970;29;20128;-75
2021/11/02 09:26:31;;;;;;;3.42;1.90;;;;;;;10.42;100.00;96672.22;4940554;29;20118;-74
2021/11/02 09:29:01;;;;;;;3.50;2.17;;;;;;;10.56;100.00;96683.72;4954274;29;20030;-78
2021/11/02 09:31:31;;;;;;;4.63;2.08;;;;;;;10.84;100.00;96688.81;4944712;29;20122;-78
2021/11/02 09:33:57;;;;;;;4.45;1.95;;;;;;;10.93;100.00;96686.84;4940938;29;20027;-76
2021/11/02 09:36:28;;;;;;;5.00;1.90;;;;;;;11.03;100.00;96683.72;4934984;29;20039;-80
2021/11/02 09:39:04;;;;;;;3.95;2.45;;;;;;;11.05;100.00;96679.53;4937886;29;20114;-78
2021/11/02 09:41:35;;;;;;;3.97;1.90;;;;;;;10.77;100.00;96673.69;4938558;29;20031;-78
2021/11/02 09:44:17;;;;;;;6.38;2.42;;;;;;;10.84;100.00;96677.88;4939371;29;20031;-78
2021/11/02 09:47:23;;;;;;;4.47;2.47;;;;;;;10.79;100.00;96678.03;4926590;29;20477;-79
2021/11/02 09:50:15;;;;;;;3.95;2.03;;;;;;;11.03;100.00;96687.25;4908057;29;20043;-74
2021/11/02 09:52:59;;;;;;;3.60;2.08;;;;;;;10.93;100.00;96682.13;4935623;29;20034;-77
2021/11/02 09:56:04;;;;;;;4.25;2.00;;;;;;;11.03;100.00;96697.38;4926717;29;20038;-74
2021/11/02 09:59:00;;;;;;;3.60;1.98;;;;;;;11.18;100.00;96703.09;4935387;29;20065;-74
2021/11/02 10:01:49;;;;;;;3.67;2.30;;;;;;;11.19;100.00;96703.91;4952082;29;20043;-74
2021/11/02 10:04:25;;;;;;;4.93;2.35;;;;;;;11.50;100.00;96701.63;4952612;29;20045;-74
2021/11/02 10:07:06;;;;;;;5.72;2.20;;;;;;;11.72;100.00;96698.63;4961399;28;20400;-78
2021/11/02 10:09:44;;;;;;;3.15;1.83;;;;;;;11.71;100.00;96690.75;4946955;29;20028;-80
2021/11/02 10:12:22;;;;;;;4.50;2.20;;;;;;;11.81;100.00;96699.34;4933857;29;20047;-80
2021/11/02 10:15:06;;;;;;;4.68;2.00;;;;;;;11.74;100.00;96707.31;4961096;28;20049;-77
2021/11/02 10:17:54;;;;;;;3.88;2.17;;;;;;;11.97;100.00;96704.22;4988924;28;20534;-79
2021/11/02 10:20:26;;;;;;;4.07;1.90;;;;;;;11.94;100.00;96705.72;4972837;28;20032;-79
2021/11/02 10:23:09;;;;;;;5.15;1.88;;;;;;;11.72;100.00;96711.50;4954942;29;20031;-80
2021/11/02 10:25:56;;;;;;;8.02;2.13;;;;;;;11.67;100.00;96712.50;4962408;29;20035;-79
2021/11/02 10:28:45;;;;;;;3.88;2.20;;;;;;;11.65;100.00;96706.53;4967971;29;20055;-78
2021/11/02 10:31:24;;;;;;;3.17;1.80;;;;;;;11.67;100.00;96707.00;4959172;29;20051;-80
2021/11/02 10:34:10;;;;;;;6.28;2.42;;;;;;;11.28;100.00;96715.63;4964609;29;20496;-78
2021/11/02 10:36:53;;;;;;;4.53;2.15;;;;;;;11.18;100.00;96714.06;4978496;28;20079;-77
2021/11/02 10:39:27;;;;;;;5.60;2.33;;;;;;;11.16;100.00;96712.78;4953931;29;20031;-80
2021/11/02 10:42:23;;;;;;;3.38;1.70;;;;;;;11.33;100.00;96709.97;4959634;29;20054;-80
2021/11/02 10:44:52;;;;;;;;;;;;;;;11.75;100.00;96714.38;4953116;29;20028;-74
2021/11/02 10:47:47;;;;;;;8.05;3.40;;;;;;;11.72;100.00;96706.84;4947719;28;20371;-75
2021/11/02 10:50:13;;;;;;;5.07;2.13;;;;;;;11.75;100.00;96708.91;4942171;28;20055;-75
2021/11/02 10:52:40;;;;;;;6.50;2.88;;;;;;;11.81;100.00;96702.09;4941727;29;20496;-75
2021/11/02 10:55:22;;;;;;;4.45;1.77;;;;;;;11.27;100.00;96701.16;4938599;29;20036;-75
2021/11/02 10:58:32;;;;;;;3.85;1.75;;;;;;;11.80;100.00;96703.25;4923942;29;20024;-75
2021/11/02 11:01:03;;;;;;;3.85;1.83;;;;;;;11.39;100.00;96711.38;4935784;29;20045;-76
2021/11/02 11:03:30;;;;;;;7.78;3.15;;;;;;;11.50;100.00;96712.59;4942541;28;20491;-76
2021/11/02 11:05:59;;;;;;;3.15;1.80;;;;;;;11.60;100.00;96717.69;4939350;29;20031;-75
2021/11/02 11:08:27;;;;;;;3.72;1.65;;;;;;;11.19;100.00;96692.97;4941946;28;20043;-75
2021/11/02 11:11:05;;;;;;;4.32;2.22;;;;;;;11.39;100.00;96711.38;4946500;29;20028;-76
2021/11/02 11:13:31;;;;;;;7.57;3.20;;;;;;;11.76;100.00;96702.31;4946871;29;20079;-75
2021/11/02 11:16:20;;;;;;;3.03;2.03;;;;;;;12.14;100.00;96706.84;4941587;29;20514;-75
2021/11/02 11:18:52;;;;;;;5.30;2.33;;;;;;;12.05;100.00;96706.13;4942303;28;20461;-76
2021/11/02 11:21:25;;;;;;;4.32;1.80;;;;;;;11.27;100.00;96714.84;4943739;29;20031;-76
2021/11/02 11:24:06;;;;;;;2.55;1.60;;;;;;;11.33;100.00;96720.91;4926181;29;20802;-76
2021/11/02 11:26:34;;;;;;;2.70;1.60;;;;;;;11.36;100.00;96717.53;4944272;29;20047;-76
2021/11/02 11:29:04;;;;;;;4.95;2.40;;;;;;;11.03;100.00;96732.97;4945409;29;20495;-75
2021/11/02 11:31:31;;;;;;;10.35;3.55;;;;;;;10.71;100.00;96739.84;4946855;29;20034;-76
2021/11/02 11:34:01;;;;;;;5.47;2.42;;;;;;;10.96;100.00;96741.69;4943470;29;20024;-76
2021/11/02 11:36:28;;;;;;;4.55;2.47;;;;;;;11.02;100.00;96728.63;4943116;29;20056;-76
2021/11/02 11:39:01;;;;;;;5.63;1.80;;;;;;;11.14;100.00;96742.44;4942788;29;20144;-76
2021/11/02 11:41:27;;;;;;;14.88;5.20;;;;;;;11.19;100.00;96736.75;4926337;29;20123;-76
2021/11/02 11:43:55;;;;;;;14.90;4.40;;;;;;;11.64;100.00;96746.03;4942080;28;20039;-77
2021/11/02 11:46:24;;;;;;;4.53;2.10;;;;;;;11.63;100.00;96746.34;4942365;29;20032;-77
2021/11/02 11:48:55;;;;;;;20.85;7.32;;;;;;;11.90;100.00;96734.13;4942969;29;20027;-76
2021/11/02 11:51:25;;;;;;;10.98;4.90;;;;;;;11.90;100.00;96731.38;4942461;29;20511;-75
2021/11/02 11:54:17;;;;;;;8.90;3.65;;;;;;;11.81;100.00;96729.50;4943928;29;20031;-75
2021/11/02 11:56:43;;;;;;;6.88;3.08;;;;;;;12.56;100.00;96727.56;4938878;29;20046;-76
2021/11/02 11:59:18;;;;;;;10.07;2.70;;;;;;;12.30;100.00;96740.72;4940337;29;20026;-76
2021/11/02 12:01:53;;;;;;;9.18;4.13;;;;;;;12.62;100.00;96723.47;4941625;29;20055;-76
2021/11/02 12:04:25;;;;;;;4.28;1.45;;;;;;;12.72;100.00;96722.22;4941597;29;20039;-76
2021/11/02 12:07:03;;;;;;;2.88;1.42;;;;;;;12.60;100.00;96727.69;4942558;29;20023;-77
2021/11/02 12:09:37;;;;;;;5.70;2.80;;;;;;;12.11;100.00;96737.66;4926491;29;20066;-76
2021/11/02 12:12:06;;;;;;;5.05;1.90;;;;;;;11.85;100.00;96731.56;4941778;29;20799;-76
2021/11/02 12:14:33;;;;;;;5.50;1.95;;;;;;;11.67;100.00;96731.66;4942480;29;20400;-77
2021/11/02 12:17:00;;;;;;;2.90;1.40;;;;;;;11.67;100.00;96744.56;4943359;29;20023;-76
2021/11/02 12:19:39;;;;;;;2.28;1.35;;;;;;;11.94;100.00;96735.84;4942516;29;20123;-76
2021/11/02 12:22:07;;;;;;;5.22;2.75;;;;;;;12.33;100.00;96726.34;4942198;29;20016;-77
2021/11/02 12:24:36;;;;;;;21.13;7.95;;;;;;;12.47;100.00;96726.06;4941558;29;20091;-77
2021/11/02 12:27:17;;;;;;;12.52;4.40;;;;;;;12.10;100.00;96736.03;4942926;29;20019;-76
2021/11/02 12:29:50;;;;;;;20.70;7.03;;;;;;;11.98;100.00;96738.72;4941508;29;20059;-76
2021/11/02 12:32:18;;;;;;;13.23;5.47;;;;;;;11.69;100.00;96729.38;4941057;29;20032;-76
2021/11/02 12:34:46;;;;;;;2.70;1.60;;;;;;;11.62;100.00;96748.28;4941011;29;20022;-77
2021/11/02 12:37:13;;;;;;;4.90;1.90;;;;;;;11.74;100.00;96739.41;4942519;28;20027;-77
2021/11/02 12:39:39;;;;;;;4.35;1.80;;;;;;;12.30;100.00;96741.53;4923961;29;20035;-77
2021/11/02 12:42:05;;;;;;;2.83;1.73;;;;;;;12.60;100.00;96738.66;4939242;29;20046;-76
2021/11/02 12:44:33;;;;;;;4.25;1.95;;;;;;;12.26;100.00;96748.00;4944316;29;20012;-75
2021/11/02 12:47:01;;;;;;;6.55;3.67;;;;;;;12.51;100.00;96738.75;4934185;29;20060;-76
2021/11/02 12:49:36;;;;;;;8.77;2.97;;;;;;;12.69;100.00;96742.91;4952123;29;20031;-76
2021/11/02 12:52:05;;;;;;;4.95;1.90;;;;;;;12.45;100.00;96747.53;4952578;29;20023;-76
2021/11/02 12:54:31;;;;;;;2.35;1.38;;;;;;;12.33;100.00;96740.06;4952697;29;20119;-75
2021/11/02 12:57:05;;;;;;;3.03;1.50;;;;;;;12.63;100.00;96746.22;4953202;29;20110;-76
2021/11/02 12:59:35;;;;;;;11.52;5.07;;;;;;;12.05;100.00;96747.22;4959111;29;20058;-75
2021/11/02 13:02:20;;;;;;;6.10;2.40;;;;;;;12.33;100.00;96737.31;4954763;29;20042;-76
2021/11/02 13:04:49;;;;;;;3.45;1.85;;;;;;;12.30;100.00;96736.03;4938915;29;20389;-76
2021/11/02 13:07:15;;;;;;;3.22;1.70;;;;;;;12.37;100.00;96735.50;4934154;29;20031;-74
2021/11/02 13:09:41;;;;;;;6.07;2.85;;;;;;;12.21;100.00;96740.00;4934120;29;20083;-76
2021/11/02 13:12:09;;;;;;;8.73;3.15;;;;;;;11.96;100.00;96735.53;4933728;29;20456;-77
2021/11/02 13:14:46;;;;;;;7.57;2.97;;;;;;;11.99;100.00;96735.66;4940360;28;20391;-75
2021/11/02 13:17:14;;;;;;;4.45;2.17;;;;;;;11.96;100.00;96736.34;4972584;28;20031;-75
2021/11/02 13:19:43;;;;;;;3.13;1.60;;;;;;;11.36;100.00;96746.84;4951196;29;20188;-75
2021/11/02 13:22:18;;;;;;;3.30;1.90;;;;;;;11.52;100.00;96748.69;4952944;29;20090;-75
2021/11/02 13:25:10;;;;;;;3.75;1.80;;;;;;;11.63;100.00;96755.38;4953708;29;20035;-75
2021/11/02 13:27:38;;;;;;;3.15;1.48;;;;;;;11.65;100.00;96755.84;4934175;29;20151;-75
2021/11/02 13:30:31;;;;;;;11.55;4.95;;;;;;;11.71;100.00;96756.50;4933252;29;20062;-75
2021/11/02 13:32:58;;;;;;;5.57;2.60;;;;;;;11.74;100.00;96761.31;4945048;28;20050;-75
2021/11/02 13:35:50;;;;;;;6.35;2.22;;;;;;;11.68;100.00;96757.91;4951324;29;20047;-75
2021/11/02 13:38:40;;;;;;;5.28;2.33;;;;;;;11.64;100.00;96761.66;4934290;29;20510;-75
2021/11/02 13:41:19;;;;;;;5.65;2.80;;;;;;;11.64;100.00;96770.69;4942313;29;20493;-74
2021/11/02 13:43:46;;;;;;;4.30;1.90;;;;;;;11.62;100.00;96770.19;4938404;29;20028;-74
2021/11/02 13:46:19;;;;;;;4.82;1.65;;;;;;;11.56;100.00;96770.75;4938123;29;20114;-74
2021/11/02 13:48:45;;;;;;;3.50;1.90;;;;;;;11.71;100.00;96767.44;4931622;29;20027;-74
2021/11/02 13:51:13;;;;;;;2.70;1.50;;;;;;;11.71;100.00;96770.19;4946687;29;20030;-74
2021/11/02 13:53:40;;;;;;;4.97;1.90;;;;;;;11.78;100.00;96771.25;4927057;29;20038;-75
2021/11/02 13:56:09;;;;;;;4.10;2.03;;;;;;;11.67;100.00;96772.75;4942871;29;20027;-75
2021/11/02 13:58:37;;;;;;;4.20;2.28;;;;;;;11.59;100.00;96776.31;4949053;29;20020;-75
2021/11/02 14:01:04;;;;;;;3.45;1.70;;;;;;;11.52;100.00;96781.53;4941936;29;20670;-74
2021/11/02 14:03:38;;;;;;;3.95;2.20;;;;;;;11.33;100.00;96783.88;4941004;29;20035;-74
2021/11/02 14:06:05;;;;;;;4.07;2.28;;;;;;;11.28;100.00;96786.78;4940744;29;20123;-75
2021/11/02 14:08:33;;;;;;;5.63;2.42;;;;;;;11.21;100.00;96784.56;4940659;29;20035;-74
2021/11/02 14:10:59;;;;;;;4.18;2.38;;;;;;;11.33;100.00;96789.38;4939665;29;20023;-75
2021/11/02 14:13:47;;;;;;;4.65;2.30;;;;;;;11.48;100.00;96801.69;4941140;29;20034;-74
2021/11/02 14:16:14;;;;;;;4.78;2.60;;;;;;;11.42;100.00;96787.38;4942678;28;20086;-76
2021/11/02 14:18:40;;;;;;;4.82;2.05;;;;;;;11.42;100.00;96792.88;4940317;29;20031;-76
2021/11/02 14:21:07;;;;;;;4.80;1.70;;;;;;;11.28;100.00;96803.22;4939603;29;20055;-75
2021/11/02 14:23:39;;;;;;;7.82;2.58;;;;;;;11.25;100.00;96804.69;4941089;29;20024;-76
2021/11/02 14:26:23;;;;;;;11.57;4.10;;;;;;;11.16;100.00;96805.84;4939853;29;20038;-76
2021/11/02 14:28:51;;;;;;;10.40;3.80;;;;;;;11.20;100.00;96806.81;4942108;28;20476;-76
2021/11/02 14:31:37;;;;;;;8.20;2.53;;;;;;;11.14;100.00;96805.38;4940063;29;20028;-75
2021/11/02 14:34:21;;;;;;;5.15;1.52;;;;;;;11.04;100.00;96813.94;4940887;29;20027;-76
2021/11/02 14:36:50;;;;;;;2.83;1.50;;;;;;;10.89;100.00;96814.47;4940116;29;20110;-75
2021/11/02 14:39:16;;;;;;;3.60;1.83;;;;;;;10.86;100.00;96807.72;4934250;29;20073;-76
2021/11/02 14:41:49;;;;;;;4.95;2.60;;;;;;;10.95;100.00;96813.97;4939130;29;20480;-75
2021/11/02 14:44:18;;;;;;;5.95;2.70;;;;;;;10.98;100.00;96809.75;4923058;29;20429;-75
2021/11/02 14:46:50;;;;;;;3.45;1.92;;;;;;;11.08;100.00;96820.38;4922366;29;20032;-76
2021/11/02 14:49:27;;;;;;;10.55;4.03;;;;;;;10.99;100.00;96812.19;4938954;29;20028;-77
2021/11/02 14:52:08;;;;;;;5.65;2.88;;;;;;;10.95;100.00;96816.69;4939582;29;20047;-76
2021/11/02 14:54:43;;;;;;;3.67;2.30;;;;;;;10.84;100.00;96820.09;4941913;29;20060;-75
2021/11/02 14:57:18;;;;;;;;;;;;;;;10.79;100.00;96820.25;4942296;28;20032;-75
2021/11/02 14:59:54;;;;;;;4.43;2.80;;;;;;;10.77;100.00;96821.38;4930655;29;19914;-75
2021/11/02 15:02:42;;;;;;;4.40;2.67;;;;;;;10.73;100.00;96820.44;4944307;29;20030;-75
2021/11/02 15:05:11;;;;;;;7.25;4.13;;;;;;;10.64;100.00;96822.38;4945417;29;20028;-76
2021/11/02 15:07:41;;;;;;;6.28;3.85;;;;;;;10.58;100.00;96820.13;4949599;29;20487;-75
2021/11/02 15:10:10;;;;;;;8.35;4.20;;;;;;;10.47;100.00;96827.03;4942461;29;20499;-76
2021/11/02 15:12:40;;;;;;;10.38;5.40;;;;;;;10.44;100.00;96833.97;4918875;29;20027;-75
2021/11/02 15:15:07;;;;;;;7.78;3.20;;;;;;;10.42;100.00;96833.50;4950424;28;20057;-76
2021/11/02 15:17:32;;;;;;;6.53;3.00;;;;;;;10.41;100.00;96840.06;4974213;28;20119;-76
2021/11/02 15:19:58;;;;;;;15.57;7.70;;;;;;;10.42;100.00;96836.22;4974636;28;20031;-75
2021/11/02 15:22:26;;;;;;;39.03;20.73;;;;;;;10.45;100.00;96838.31;4948047;28;20032;-76
2021/11/02 15:24:53;;;;;;;13.13;6.72;;;;;;;10.44;100.00;96839.44;4918624;29;20027;-75
2021/11/02 15:27:31;;;;;;;7.25;3.63;;;;;;;10.45;100.00;96834.78;4939229;29;20044;-76
2021/11/02 15:30:22;;;;;;;9.77;3.65;;;;;;;10.51;100.00;96844.41;4943987;29;20168;-76
2021/11/02 15:32:50;;;;;;;7.88;3.53;;;;;;;10.52;100.00;96843.31;4931830;29;20040;-76
2021/11/02 15:35:21;;;;;;;8.60;3.33;;;;;;;10.49;100.00;96842.03;4941115;29;20105;-76
2021/11/02 15:37:51;;;;;;;6.72;2.95;;;;;;;10.34;100.00;96823.34;4955625;29;20035;-77
2021/11/02 15:40:28;;;;;;;6.28;2.80;;;;;;;10.40;100.00;96848.63;4945863;29;20031;-76
2021/11/02 15:42:57;;;;;;;6.97;3.67;;;;;;;10.35;100.00;96846.03;4953917;29;20035;-78
2021/11/02 15:45:30;;;;;;;7.97;3.22;;;;;;;10.34;100.00;96856.16;4950605;29;20539;-78
2021/11/02 15:48:05;;;;;;;7.25;2.95;;;;;;;10.31;100.00;96851.31;4955492;29;20554;-76
2021/11/02 15:50:33;;;;;;;7.22;3.65;;;;;;;10.33;100.00;96860.03;4941120;29;20039;-77
2021/11/02 15:53:02;;;;;;;11.68;4.93;;;;;;;10.36;100.00;96864.84;4935339;29;20027;-77
2021/11/02 15:55:29;;;;;;;6.10;3.45;;;;;;;10.43;100.00;96869.84;4919505;29;20393;-77
2021/11/02 15:58:02;;;;;;;8.52;3.65;;;;;;;10.43;100.00;96880.78;4951187;29;20086;-76
2021/11/02 16:00:41;;;;;;;6.78;3.33;;;;;;;10.46;100.00;96872.72;4936304;29;20027;-77
2021/11/02 16:03:13;;;;;;;7.60;3.90;;;;;;;10.47;100.00;96871.59;4937461;29;20031;-79
2021/11/02 16:05:44;;;;;;;9.95;3.35;;;;;;;10.43;100.00;96869.84;4918941;29;20051;-76
2021/11/02 16:08:22;;;;;;;9.23;3.80;;;;;;;10.40;100.00;96876.72;4936816;29;20082;-78
2021/11/02 16:11:10;;;;;;;9.77;4.75;;;;;;;10.38;100.00;96875.44;4937980;29;20027;-76
2021/11/02 16:13:36;;;;;;;10.70;6.20;;;;;;;10.38;100.00;96876.25;4938254;29;20469;-76
2021/11/02 16:16:05;;;;;;;6.95;4.65;;;;;;;10.37;100.00;96880.09;4942002;29;20083;-76
2021/11/02 16:18:33;;;;;;;6.15;4.10;;;;;;;10.46;100.00;96880.13;4940534;28;20501;-73
2021/11/02 16:21:02;;;;;;;7.43;4.53;;;;;;;10.44;100.00;96880.44;4918113;29;20066;-76
2021/11/02 16:23:47;;;;;;;7.68;5.00;;;;;;;10.48;100.00;96889.63;4944738;29;20522;-77
2021/11/02 16:26:19;;;;;;;7.72;4.13;;;;;;;10.44;100.00;96883.16;4934974;29;20044;-77
2021/11/02 16:28:45;;;;;;;7.10;4.30;;;;;;;10.51;100.00;96877.22;4934919;29;20042;-79
2021/11/02 16:31:21;;;;;;;10.98;4.68;;;;;;;10.45;100.00;96889.44;4934627;29;20043;-76
2021/11/02 16:33:47;;;;;;;12.32;5.75;;;;;;;10.39;100.00;96894.28;4935272;29;20058;-76
2021/11/02 16:36:30;;;;;;;8.95;5.60;;;;;;;10.34;100.00;96904.56;4934697;29;20056;-77
2021/11/02 16:39:25;;;;;;;11.05;4.95;;;;;;;10.28;100.00;96890.22;4937547;29;20019;-78
2021/11/02 16:41:53;;;;;;;10.15;4.53;;;;;;;10.27;100.00;96901.50;4933776;29;20138;-78
2021/11/02 16:44:31;;;;;;;7.45;4.43;;;;;;;10.23;100.00;96900.50;4938237;29;20060;-78
2021/11/02 16:47:24;;;;;;;12.18;5.80;;;;;;;10.24;100.00;96894.75;4921569;29;20059;-78
2021/11/02 16:49:50;;;;;;;12.35;6.07;;;;;;;10.25;100.00;96903.72;4918173;29;20074;-78
2021/11/02 16:52:27;;;;;;;11.68;6.53;;;;;;;10.15;100.00;96907.56;4944844;29;20031;-80
2021/11/02 16:55:07;;;;;;;11.05;6.53;;;;;;;10.15;100.00;96908.38;4943687;29;20038;-78
2021/11/02 16:57:33;;;;;;;11.40;6.38;;;;;;;10.28;100.00;96916.75;4935473;29;20031;-78
2021/11/02 17:00:01;;;;;;;9.65;6.07;;;;;;;10.24;100.00;96918.53;4935724;29;20476;-80